sensor_id;sensor_type;location;lat;lon;timestamp;P1;durP1;ratioP1;P2;durP2;ratioP2
63087;SDS011;49173;43.164;27.786;2024-03-17T00:00:34;21.15;;;13.68;;
63087;SDS011;49173;43.164;27.786;2024-03-17T00:03:00;20.60;;;13.45;;
63087;SDS011;49173;43.164;27.786;2024-03-17T00:05:26;16.95;;;11.68;;
63087;SDS011;49173;43.164;27.786;2024-03-17T00:07:52;15.82;;;11.25;;
63087;SDS011;49173;43.164;27.786;2024-03-17T00:10:18;18.48;;;13.05;;
63087;SDS011;49173;43.164;27.786;2024-03-17T00:12:44;16.65;;;12.45;;
63087;SDS011;49173;43.164;27.786;2024-03-17T00:15:10;20.92;;;15.32;;
63087;SDS011;49173;43.164;27.786;2024-03-17T00:17:36;23.25;;;14.82;;
63087;SDS011;49173;43.164;27.786;2024-03-17T00:20:02;18.20;;;13.90;;
63087;SDS011;49173;43.164;27.786;2024-03-17T00:22:34;26.40;;;18.60;;
63087;SDS011;49173;43.164;27.786;2024-03-17T00:25:05;22.27;;;16.50;;
63087;SDS011;49173;43.164;27.786;2024-03-17T00:27:31;25.90;;;16.92;;
63087;SDS011;49173;43.164;27.786;2024-03-17T00:29:58;24.45;;;17.20;;
63087;SDS011;49173;43.164;27.786;2024-03-17T00:32:24;25.23;;;17.83;;
63087;SDS011;49173;43.164;27.786;2024-03-17T00:34:50;25.13;;;16.65;;
63087;SDS011;49173;43.164;27.786;2024-03-17T00:37:15;21.13;;;14.20;;
63087;SDS011;49173;43.164;27.786;2024-03-17T00:39:41;21.65;;;13.85;;
63087;SDS011;49173;43.164;27.786;2024-03-17T00:42:07;20.00;;;12.93;;
63087;SDS011;49173;43.164;27.786;2024-03-17T00:44:32;19.08;;;14.02;;
63087;SDS011;49173;43.164;27.786;2024-03-17T00:46:58;22.85;;;15.15;;
63087;SDS011;49173;43.164;27.786;2024-03-17T00:49:24;27.90;;;19.35;;
63087;SDS011;49173;43.164;27.786;2024-03-17T00:51:50;33.30;;;21.95;;
63087;SDS011;49173;43.164;27.786;2024-03-17T00:54:16;24.05;;;16.88;;
63087;SDS011;49173;43.164;27.786;2024-03-17T00:56:43;16.83;;;12.38;;
63087;SDS011;49173;43.164;27.786;2024-03-17T00:59:09;18.10;;;12.88;;
63087;SDS011;49173;43.164;27.786;2024-03-17T01:01:34;18.83;;;12.27;;
63087;SDS011;49173;43.164;27.786;2024-03-17T01:04:00;18.23;;;12.32;;
63087;SDS011;49173;43.164;27.786;2024-03-17T01:06:26;17.05;;;11.98;;
63087;SDS011;49173;43.164;27.786;2024-03-17T01:08:52;15.02;;;11.57;;
63087;SDS011;49173;43.164;27.786;2024-03-17T01:11:17;18.75;;;12.50;;
63087;SDS011;49173;43.164;27.786;2024-03-17T01:13:44;23.58;;;14.23;;
63087;SDS011;49173;43.164;27.786;2024-03-17T01:16:11;22.15;;;13.80;;
63087;SDS011;49173;43.164;27.786;2024-03-17T01:18:38;23.95;;;16.13;;
63087;SDS011;49173;43.164;27.786;2024-03-17T01:21:05;34.63;;;20.17;;
63087;SDS011;49173;43.164;27.786;2024-03-17T01:23:32;38.47;;;23.60;;
63087;SDS011;49173;43.164;27.786;2024-03-17T01:25:58;123.18;;;70.45;;
63087;SDS011;49173;43.164;27.786;2024-03-17T01:28:23;81.22;;;46.53;;
63087;SDS011;49173;43.164;27.786;2024-03-17T01:30:49;38.60;;;24.73;;
63087;SDS011;49173;43.164;27.786;2024-03-17T01:33:15;29.85;;;20.70;;
63087;SDS011;49173;43.164;27.786;2024-03-17T01:35:43;27.30;;;16.33;;
63087;SDS011;49173;43.164;27.786;2024-03-17T01:38:08;22.05;;;15.70;;
63087;SDS011;49173;43.164;27.786;2024-03-17T01:40:36;19.90;;;13.70;;
63087;SDS011;49173;43.164;27.786;2024-03-17T01:43:01;20.33;;;14.55;;
63087;SDS011;49173;43.164;27.786;2024-03-17T01:45:28;18.02;;;12.88;;
63087;SDS011;49173;43.164;27.786;2024-03-17T01:47:56;15.32;;;11.55;;
63087;SDS011;49173;43.164;27.786;2024-03-17T01:50:26;17.23;;;12.05;;
63087;SDS011;49173;43.164;27.786;2024-03-17T01:52:57;18.88;;;11.73;;
63087;SDS011;49173;43.164;27.786;2024-03-17T01:55:26;17.43;;;12.03;;
63087;SDS011;49173;43.164;27.786;2024-03-17T01:57:52;17.35;;;11.93;;
63087;SDS011;49173;43.164;27.786;2024-03-17T02:00:18;16.75;;;11.95;;
63087;SDS011;49173;43.164;27.786;2024-03-17T02:02:44;18.13;;;11.73;;
63087;SDS011;49173;43.164;27.786;2024-03-17T02:05:11;21.48;;;13.05;;
63087;SDS011;49173;43.164;27.786;2024-03-17T02:07:37;17.25;;;12.60;;
63087;SDS011;49173;43.164;27.786;2024-03-17T02:10:02;17.45;;;12.30;;
63087;SDS011;49173;43.164;27.786;2024-03-17T02:12:31;18.30;;;12.40;;
63087;SDS011;49173;43.164;27.786;2024-03-17T02:14:58;18.52;;;12.20;;
63087;SDS011;49173;43.164;27.786;2024-03-17T02:17:24;19.02;;;13.38;;
63087;SDS011;49173;43.164;27.786;2024-03-17T02:19:51;23.20;;;16.38;;
63087;SDS011;49173;43.164;27.786;2024-03-17T02:22:17;19.13;;;13.98;;
63087;SDS011;49173;43.164;27.786;2024-03-17T02:24:43;22.40;;;14.05;;
63087;SDS011;49173;43.164;27.786;2024-03-17T02:27:10;23.25;;;14.15;;
63087;SDS011;49173;43.164;27.786;2024-03-17T02:29:36;21.73;;;14.93;;
63087;SDS011;49173;43.164;27.786;2024-03-17T02:32:02;25.55;;;15.57;;
63087;SDS011;49173;43.164;27.786;2024-03-17T02:34:38;28.40;;;16.88;;
63087;SDS011;49173;43.164;27.786;2024-03-17T02:37:04;24.15;;;16.08;;
63087;SDS011;49173;43.164;27.786;2024-03-17T02:39:32;23.67;;;15.52;;
63087;SDS011;49173;43.164;27.786;2024-03-17T02:42:07;21.92;;;15.82;;
63087;SDS011;49173;43.164;27.786;2024-03-17T02:44:34;21.80;;;14.93;;
63087;SDS011;49173;43.164;27.786;2024-03-17T02:47:04;26.45;;;16.55;;
63087;SDS011;49173;43.164;27.786;2024-03-17T02:49:31;24.52;;;17.42;;
63087;SDS011;49173;43.164;27.786;2024-03-17T02:52:05;20.27;;;15.73;;
63087;SDS011;49173;43.164;27.786;2024-03-17T02:54:32;21.35;;;14.52;;
63087;SDS011;49173;43.164;27.786;2024-03-17T02:57:00;19.80;;;13.27;;
63087;SDS011;49173;43.164;27.786;2024-03-17T02:59:26;19.55;;;12.23;;
63087;SDS011;49173;43.164;27.786;2024-03-17T03:01:52;18.17;;;11.57;;
63087;SDS011;49173;43.164;27.786;2024-03-17T03:04:18;18.55;;;12.70;;
63087;SDS011;49173;43.164;27.786;2024-03-17T03:06:44;20.38;;;14.60;;
63087;SDS011;49173;43.164;27.786;2024-03-17T03:09:09;21.75;;;15.98;;
63087;SDS011;49173;43.164;27.786;2024-03-17T03:11:40;23.42;;;16.58;;
63087;SDS011;49173;43.164;27.786;2024-03-17T03:14:06;24.88;;;17.23;;
63087;SDS011;49173;43.164;27.786;2024-03-17T03:16:32;23.13;;;16.35;;
63087;SDS011;49173;43.164;27.786;2024-03-17T03:18:58;20.27;;;13.35;;
63087;SDS011;49173;43.164;27.786;2024-03-17T03:21:24;21.50;;;13.75;;
63087;SDS011;49173;43.164;27.786;2024-03-17T03:23:50;20.00;;;14.40;;
63087;SDS011;49173;43.164;27.786;2024-03-17T03:26:17;20.60;;;14.48;;
63087;SDS011;49173;43.164;27.786;2024-03-17T03:28:43;19.23;;;13.45;;
63087;SDS011;49173;43.164;27.786;2024-03-17T03:31:12;31.55;;;21.58;;
63087;SDS011;49173;43.164;27.786;2024-03-17T03:33:42;40.80;;;28.90;;
63087;SDS011;49173;43.164;27.786;2024-03-17T03:36:11;39.00;;;26.77;;
63087;SDS011;49173;43.164;27.786;2024-03-17T03:38:38;30.77;;;18.88;;
63087;SDS011;49173;43.164;27.786;2024-03-17T03:41:08;30.23;;;20.42;;
63087;SDS011;49173;43.164;27.786;2024-03-17T03:43:34;29.05;;;20.85;;
63087;SDS011;49173;43.164;27.786;2024-03-17T03:46:01;29.95;;;21.50;;
63087;SDS011;49173;43.164;27.786;2024-03-17T03:48:27;28.60;;;20.58;;
63087;SDS011;49173;43.164;27.786;2024-03-17T03:50:53;29.85;;;21.90;;
63087;SDS011;49173;43.164;27.786;2024-03-17T03:53:19;49.08;;;33.22;;
63087;SDS011;49173;43.164;27.786;2024-03-17T03:55:46;46.65;;;32.30;;
63087;SDS011;49173;43.164;27.786;2024-03-17T03:58:11;43.08;;;29.63;;
63087;SDS011;49173;43.164;27.786;2024-03-17T04:00:40;33.90;;;23.58;;
63087;SDS011;49173;43.164;27.786;2024-03-17T04:03:06;31.92;;;22.10;;
63087;SDS011;49173;43.164;27.786;2024-03-17T04:05:32;27.23;;;18.55;;
63087;SDS011;49173;43.164;27.786;2024-03-17T04:07:59;30.52;;;21.27;;
63087;SDS011;49173;43.164;27.786;2024-03-17T04:10:29;23.20;;;16.23;;
63087;SDS011;49173;43.164;27.786;2024-03-17T04:12:55;26.30;;;18.17;;
63087;SDS011;49173;43.164;27.786;2024-03-17T04:15:22;19.60;;;14.73;;
63087;SDS011;49173;43.164;27.786;2024-03-17T04:17:48;22.45;;;15.35;;
63087;SDS011;49173;43.164;27.786;2024-03-17T04:20:14;22.33;;;16.02;;
63087;SDS011;49173;43.164;27.786;2024-03-17T04:22:40;18.88;;;12.32;;
63087;SDS011;49173;43.164;27.786;2024-03-17T04:25:08;20.90;;;13.07;;
63087;SDS011;49173;43.164;27.786;2024-03-17T04:27:35;17.58;;;12.85;;
63087;SDS011;49173;43.164;27.786;2024-03-17T04:30:01;18.75;;;12.68;;
63087;SDS011;49173;43.164;27.786;2024-03-17T04:32:27;19.95;;;13.38;;
63087;SDS011;49173;43.164;27.786;2024-03-17T04:34:53;20.98;;;13.85;;
63087;SDS011;49173;43.164;27.786;2024-03-17T04:37:19;18.98;;;12.98;;
63087;SDS011;49173;43.164;27.786;2024-03-17T04:39:45;23.10;;;14.90;;
63087;SDS011;49173;43.164;27.786;2024-03-17T04:42:12;20.63;;;13.90;;
63087;SDS011;49173;43.164;27.786;2024-03-17T04:44:45;20.98;;;13.80;;
63087;SDS011;49173;43.164;27.786;2024-03-17T04:47:11;18.23;;;12.60;;
63087;SDS011;49173;43.164;27.786;2024-03-17T04:49:41;25.70;;;15.10;;
63087;SDS011;49173;43.164;27.786;2024-03-17T04:52:08;20.25;;;14.93;;
63087;SDS011;49173;43.164;27.786;2024-03-17T04:54:35;20.73;;;14.30;;
63087;SDS011;49173;43.164;27.786;2024-03-17T04:57:01;31.92;;;21.63;;
63087;SDS011;49173;43.164;27.786;2024-03-17T04:59:27;24.80;;;15.20;;
63087;SDS011;49173;43.164;27.786;2024-03-17T05:01:53;23.60;;;15.20;;
63087;SDS011;49173;43.164;27.786;2024-03-17T05:04:19;20.85;;;14.25;;
63087;SDS011;49173;43.164;27.786;2024-03-17T05:06:45;23.00;;;15.57;;
63087;SDS011;49173;43.164;27.786;2024-03-17T05:09:14;26.70;;;17.75;;
63087;SDS011;49173;43.164;27.786;2024-03-17T05:11:43;32.80;;;22.67;;
63087;SDS011;49173;43.164;27.786;2024-03-17T05:14:10;38.22;;;22.98;;
63087;SDS011;49173;43.164;27.786;2024-03-17T05:16:36;31.65;;;21.17;;
63087;SDS011;49173;43.164;27.786;2024-03-17T05:19:02;30.08;;;21.38;;
63087;SDS011;49173;43.164;27.786;2024-03-17T05:21:29;27.10;;;19.02;;
63087;SDS011;49173;43.164;27.786;2024-03-17T05:24:00;24.67;;;17.75;;
63087;SDS011;49173;43.164;27.786;2024-03-17T05:26:27;34.17;;;22.98;;
63087;SDS011;49173;43.164;27.786;2024-03-17T05:28:53;35.35;;;24.77;;
63087;SDS011;49173;43.164;27.786;2024-03-17T05:31:19;40.78;;;29.08;;
63087;SDS011;49173;43.164;27.786;2024-03-17T05:33:51;33.45;;;24.13;;
63087;SDS011;49173;43.164;27.786;2024-03-17T05:36:17;26.50;;;17.90;;
63087;SDS011;49173;43.164;27.786;2024-03-17T05:38:45;23.40;;;18.48;;
63087;SDS011;49173;43.164;27.786;2024-03-17T05:41:11;22.25;;;17.85;;
63087;SDS011;49173;43.164;27.786;2024-03-17T05:43:38;24.98;;;17.50;;
63087;SDS011;49173;43.164;27.786;2024-03-17T05:46:08;23.50;;;19.15;;
63087;SDS011;49173;43.164;27.786;2024-03-17T05:48:35;25.85;;;18.52;;
63087;SDS011;49173;43.164;27.786;2024-03-17T05:51:05;19.25;;;13.90;;
63087;SDS011;49173;43.164;27.786;2024-03-17T05:53:32;19.02;;;14.50;;
63087;SDS011;49173;43.164;27.786;2024-03-17T05:55:59;22.55;;;14.57;;
63087;SDS011;49173;43.164;27.786;2024-03-17T05:58:25;23.25;;;16.08;;
63087;SDS011;49173;43.164;27.786;2024-03-17T06:00:51;17.73;;;14.30;;
63087;SDS011;49173;43.164;27.786;2024-03-17T06:03:17;17.23;;;14.15;;
63087;SDS011;49173;43.164;27.786;2024-03-17T06:05:43;32.05;;;21.95;;
63087;SDS011;49173;43.164;27.786;2024-03-17T06:08:12;20.10;;;14.80;;
63087;SDS011;49173;43.164;27.786;2024-03-17T06:10:43;24.67;;;15.57;;
63087;SDS011;49173;43.164;27.786;2024-03-17T06:13:10;51.45;;;25.08;;
63087;SDS011;49173;43.164;27.786;2024-03-17T06:15:41;72.82;;;32.78;;
63087;SDS011;49173;43.164;27.786;2024-03-17T06:18:14;34.42;;;21.20;;
63087;SDS011;49173;43.164;27.786;2024-03-17T06:20:43;24.27;;;18.65;;
63087;SDS011;49173;43.164;27.786;2024-03-17T06:23:16;40.22;;;25.58;;
63087;SDS011;49173;43.164;27.786;2024-03-17T06:25:48;31.75;;;22.80;;
63087;SDS011;49173;43.164;27.786;2024-03-17T06:28:23;35.80;;;21.73;;
63087;SDS011;49173;43.164;27.786;2024-03-17T06:30:56;45.38;;;22.13;;
63087;SDS011;49173;43.164;27.786;2024-03-17T06:33:25;33.13;;;23.02;;
63087;SDS011;49173;43.164;27.786;2024-03-17T06:35:57;31.50;;;22.50;;
63087;SDS011;49173;43.164;27.786;2024-03-17T06:38:33;34.08;;;24.65;;
63087;SDS011;49173;43.164;27.786;2024-03-17T06:40:59;32.83;;;24.70;;
63087;SDS011;49173;43.164;27.786;2024-03-17T06:43:27;38.20;;;28.55;;
63087;SDS011;49173;43.164;27.786;2024-03-17T06:45:56;45.83;;;31.25;;
63087;SDS011;49173;43.164;27.786;2024-03-17T06:48:30;46.80;;;33.17;;
63087;SDS011;49173;43.164;27.786;2024-03-17T06:50:59;45.30;;;33.20;;
63087;SDS011;49173;43.164;27.786;2024-03-17T06:53:32;44.88;;;35.97;;
63087;SDS011;49173;43.164;27.786;2024-03-17T06:56:02;55.38;;;39.55;;
63087;SDS011;49173;43.164;27.786;2024-03-17T06:58:32;53.83;;;41.10;;
63087;SDS011;49173;43.164;27.786;2024-03-17T07:01:01;60.70;;;45.40;;
63087;SDS011;49173;43.164;27.786;2024-03-17T07:03:33;69.32;;;46.38;;
63087;SDS011;49173;43.164;27.786;2024-03-17T07:05:59;67.68;;;48.85;;
63087;SDS011;49173;43.164;27.786;2024-03-17T07:08:30;81.97;;;47.15;;
63087;SDS011;49173;43.164;27.786;2024-03-17T07:11:06;64.80;;;47.53;;
63087;SDS011;49173;43.164;27.786;2024-03-17T07:13:36;67.50;;;48.15;;
63087;SDS011;49173;43.164;27.786;2024-03-17T07:16:03;68.07;;;49.50;;
63087;SDS011;49173;43.164;27.786;2024-03-17T07:18:36;70.82;;;48.78;;
63087;SDS011;49173;43.164;27.786;2024-03-17T07:21:11;68.38;;;47.67;;
63087;SDS011;49173;43.164;27.786;2024-03-17T07:23:41;66.95;;;48.05;;
63087;SDS011;49173;43.164;27.786;2024-03-17T07:26:08;65.28;;;46.83;;
63087;SDS011;49173;43.164;27.786;2024-03-17T07:28:39;67.43;;;46.33;;
63087;SDS011;49173;43.164;27.786;2024-03-17T07:31:08;68.50;;;47.20;;
63087;SDS011;49173;43.164;27.786;2024-03-17T07:33:38;65.18;;;44.70;;
63087;SDS011;49173;43.164;27.786;2024-03-17T07:36:10;71.05;;;46.63;;
63087;SDS011;49173;43.164;27.786;2024-03-17T07:38:39;58.45;;;43.90;;
63087;SDS011;49173;43.164;27.786;2024-03-17T07:41:08;71.07;;;46.42;;
63087;SDS011;49173;43.164;27.786;2024-03-17T07:43:39;65.82;;;42.45;;
63087;SDS011;49173;43.164;27.786;2024-03-17T07:46:09;66.82;;;42.80;;
63087;SDS011;49173;43.164;27.786;2024-03-17T07:48:40;59.17;;;35.97;;
63087;SDS011;49173;43.164;27.786;2024-03-17T07:51:11;55.75;;;35.53;;
63087;SDS011;49173;43.164;27.786;2024-03-17T07:53:46;48.95;;;32.30;;
63087;SDS011;49173;43.164;27.786;2024-03-17T07:56:17;40.85;;;25.02;;
63087;SDS011;49173;43.164;27.786;2024-03-17T07:58:46;43.00;;;24.33;;
63087;SDS011;49173;43.164;27.786;2024-03-17T08:01:16;40.10;;;25.70;;
63087;SDS011;49173;43.164;27.786;2024-03-17T08:03:46;38.53;;;24.13;;
63087;SDS011;49173;43.164;27.786;2024-03-17T08:06:21;36.17;;;22.48;;
63087;SDS011;49173;43.164;27.786;2024-03-17T08:08:57;37.80;;;22.15;;
63087;SDS011;49173;43.164;27.786;2024-03-17T08:11:25;36.15;;;21.10;;
63087;SDS011;49173;43.164;27.786;2024-03-17T08:13:56;37.67;;;21.85;;
63087;SDS011;49173;43.164;27.786;2024-03-17T08:16:22;35.38;;;21.52;;
63087;SDS011;49173;43.164;27.786;2024-03-17T08:18:50;35.00;;;20.73;;
63087;SDS011;49173;43.164;27.786;2024-03-17T08:21:21;35.00;;;19.95;;
63087;SDS011;49173;43.164;27.786;2024-03-17T08:23:50;33.60;;;20.58;;
63087;SDS011;49173;43.164;27.786;2024-03-17T08:26:21;36.08;;;21.80;;
63087;SDS011;49173;43.164;27.786;2024-03-17T08:28:50;34.80;;;21.55;;
63087;SDS011;49173;43.164;27.786;2024-03-17T08:31:20;38.60;;;19.65;;
63087;SDS011;49173;43.164;27.786;2024-03-17T08:33:54;30.60;;;19.02;;
63087;SDS011;49173;43.164;27.786;2024-03-17T08:36:26;30.27;;;19.00;;
63087;SDS011;49173;43.164;27.786;2024-03-17T08:39:01;30.42;;;19.67;;
63087;SDS011;49173;43.164;27.786;2024-03-17T08:41:29;30.95;;;18.95;;
63087;SDS011;49173;43.164;27.786;2024-03-17T08:44:01;29.23;;;18.33;;
63087;SDS011;49173;43.164;27.786;2024-03-17T08:46:31;27.27;;;19.02;;
63087;SDS011;49173;43.164;27.786;2024-03-17T08:48:57;33.50;;;23.98;;
63087;SDS011;49173;43.164;27.786;2024-03-17T08:51:26;28.30;;;18.85;;
63087;SDS011;49173;43.164;27.786;2024-03-17T08:53:58;27.42;;;18.20;;
63087;SDS011;49173;43.164;27.786;2024-03-17T08:56:26;27.90;;;18.40;;
63087;SDS011;49173;43.164;27.786;2024-03-17T08:58:52;28.15;;;17.98;;
63087;SDS011;49173;43.164;27.786;2024-03-17T09:01:18;26.58;;;17.60;;
63087;SDS011;49173;43.164;27.786;2024-03-17T09:03:44;31.40;;;18.23;;
63087;SDS011;49173;43.164;27.786;2024-03-17T09:06:16;29.17;;;18.00;;
63087;SDS011;49173;43.164;27.786;2024-03-17T09:08:42;27.65;;;17.63;;
63087;SDS011;49173;43.164;27.786;2024-03-17T09:11:12;26.77;;;17.88;;
63087;SDS011;49173;43.164;27.786;2024-03-17T09:13:39;26.48;;;17.17;;
63087;SDS011;49173;43.164;27.786;2024-03-17T09:16:09;28.10;;;18.60;;
63087;SDS011;49173;43.164;27.786;2024-03-17T09:18:39;28.15;;;19.63;;
63087;SDS011;49173;43.164;27.786;2024-03-17T09:21:14;28.75;;;18.30;;
63087;SDS011;49173;43.164;27.786;2024-03-17T09:23:43;36.30;;;21.83;;
63087;SDS011;49173;43.164;27.786;2024-03-17T09:26:09;29.08;;;19.88;;
63087;SDS011;49173;43.164;27.786;2024-03-17T09:28:41;29.42;;;18.80;;
63087;SDS011;49173;43.164;27.786;2024-03-17T09:31:11;30.77;;;19.65;;
63087;SDS011;49173;43.164;27.786;2024-03-17T09:33:38;27.67;;;19.45;;
63087;SDS011;49173;43.164;27.786;2024-03-17T09:36:13;25.75;;;18.35;;
63087;SDS011;49173;43.164;27.786;2024-03-17T09:38:39;25.63;;;16.85;;
63087;SDS011;49173;43.164;27.786;2024-03-17T09:41:07;33.60;;;21.67;;
63087;SDS011;49173;43.164;27.786;2024-03-17T09:43:46;27.52;;;19.63;;
63087;SDS011;49173;43.164;27.786;2024-03-17T09:46:13;23.33;;;16.58;;
63087;SDS011;49173;43.164;27.786;2024-03-17T09:48:42;26.93;;;17.50;;
63087;SDS011;49173;43.164;27.786;2024-03-17T09:51:21;27.92;;;17.42;;
63087;SDS011;49173;43.164;27.786;2024-03-17T09:53:57;26.70;;;17.48;;
63087;SDS011;49173;43.164;27.786;2024-03-17T09:58:53;23.02;;;16.73;;
63087;SDS011;49173;43.164;27.786;2024-03-17T10:01:22;25.15;;;16.98;;
63087;SDS011;49173;43.164;27.786;2024-03-17T10:03:52;27.42;;;17.73;;
63087;SDS011;49173;43.164;27.786;2024-03-17T10:06:27;24.77;;;16.17;;
63087;SDS011;49173;43.164;27.786;2024-03-17T10:08:57;22.85;;;15.43;;
63087;SDS011;49173;43.164;27.786;2024-03-17T10:11:33;23.05;;;15.50;;
63087;SDS011;49173;43.164;27.786;2024-03-17T10:14:04;21.23;;;15.00;;
63087;SDS011;49173;43.164;27.786;2024-03-17T10:16:37;25.67;;;18.38;;
63087;SDS011;49173;43.164;27.786;2024-03-17T10:19:19;23.50;;;16.33;;
63087;SDS011;49173;43.164;27.786;2024-03-17T10:21:57;21.58;;;15.07;;
63087;SDS011;49173;43.164;27.786;2024-03-17T10:24:30;17.10;;;13.27;;
63087;SDS011;49173;43.164;27.786;2024-03-17T10:26:57;24.02;;;14.18;;
63087;SDS011;49173;43.164;27.786;2024-03-17T10:29:31;19.48;;;13.10;;
63087;SDS011;49173;43.164;27.786;2024-03-17T10:32:16;19.77;;;13.70;;
63087;SDS011;49173;43.164;27.786;2024-03-17T10:34:47;21.20;;;13.40;;
63087;SDS011;49173;43.164;27.786;2024-03-17T10:37:14;20.55;;;12.30;;
63087;SDS011;49173;43.164;27.786;2024-03-17T10:42:11;18.73;;;13.77;;
63087;SDS011;49173;43.164;27.786;2024-03-17T10:44:40;18.17;;;12.77;;
63087;SDS011;49173;43.164;27.786;2024-03-17T10:47:32;19.30;;;12.98;;
63087;SDS011;49173;43.164;27.786;2024-03-17T10:50:00;16.85;;;12.15;;
63087;SDS011;49173;43.164;27.786;2024-03-17T10:52:36;15.90;;;11.48;;
63087;SDS011;49173;43.164;27.786;2024-03-17T10:55:21;20.08;;;11.68;;
63087;SDS011;49173;43.164;27.786;2024-03-17T10:57:52;25.92;;;16.40;;
63087;SDS011;49173;43.164;27.786;2024-03-17T11:00:26;13.32;;;9.60;;
63087;SDS011;49173;43.164;27.786;2024-03-17T11:03:00;20.67;;;11.55;;
63087;SDS011;49173;43.164;27.786;2024-03-17T11:05:37;15.75;;;10.07;;
63087;SDS011;49173;43.164;27.786;2024-03-17T11:08:14;17.30;;;10.75;;
63087;SDS011;49173;43.164;27.786;2024-03-17T11:10:50;13.70;;;10.20;;
63087;SDS011;49173;43.164;27.786;2024-03-17T11:13:24;14.02;;;10.18;;
63087;SDS011;49173;43.164;27.786;2024-03-17T11:15:55;15.00;;;10.13;;
63087;SDS011;49173;43.164;27.786;2024-03-17T11:18:36;18.77;;;13.52;;
63087;SDS011;49173;43.164;27.786;2024-03-17T11:21:18;14.05;;;9.63;;
63087;SDS011;49173;43.164;27.786;2024-03-17T11:23:59;12.27;;;8.73;;
63087;SDS011;49173;43.164;27.786;2024-03-17T11:26:31;24.40;;;16.88;;
63087;SDS011;49173;43.164;27.786;2024-03-17T11:29:03;12.60;;;8.65;;
63087;SDS011;49173;43.164;27.786;2024-03-17T11:31:51;16.58;;;13.20;;
63087;SDS011;49173;43.164;27.786;2024-03-17T11:34:37;14.43;;;9.52;;
63087;SDS011;49173;43.164;27.786;2024-03-17T11:37:08;13.38;;;8.65;;
63087;SDS011;49173;43.164;27.786;2024-03-17T11:40:23;12.98;;;8.10;;
63087;SDS011;49173;43.164;27.786;2024-03-17T11:43:02;11.52;;;7.90;;
63087;SDS011;49173;43.164;27.786;2024-03-17T11:45:36;13.35;;;8.82;;
63087;SDS011;49173;43.164;27.786;2024-03-17T11:48:05;9.40;;;7.28;;
63087;SDS011;49173;43.164;27.786;2024-03-17T11:50:39;10.93;;;7.13;;
63087;SDS011;49173;43.164;27.786;2024-03-17T11:53:08;10.40;;;6.78;;
63087;SDS011;49173;43.164;27.786;2024-03-17T11:55:36;14.55;;;8.00;;
63087;SDS011;49173;43.164;27.786;2024-03-17T11:58:11;10.60;;;6.97;;
63087;SDS011;49173;43.164;27.786;2024-03-17T12:00:50;10.02;;;6.85;;
63087;SDS011;49173;43.164;27.786;2024-03-17T12:03:17;11.15;;;7.80;;
63087;SDS011;49173;43.164;27.786;2024-03-17T12:05:49;10.95;;;8.25;;
63087;SDS011;49173;43.164;27.786;2024-03-17T12:10:48;13.60;;;9.43;;
63087;SDS011;49173;43.164;27.786;2024-03-17T12:13:32;9.73;;;7.47;;
63087;SDS011;49173;43.164;27.786;2024-03-17T12:16:14;9.23;;;6.45;;
63087;SDS011;49173;43.164;27.786;2024-03-17T12:19:07;9.80;;;6.18;;
63087;SDS011;49173;43.164;27.786;2024-03-17T12:21:35;9.00;;;7.35;;
63087;SDS011;49173;43.164;27.786;2024-03-17T12:24:08;9.63;;;7.07;;
63087;SDS011;49173;43.164;27.786;2024-03-17T12:26:48;10.63;;;8.25;;
63087;SDS011;49173;43.164;27.786;2024-03-17T12:32:16;7.97;;;6.30;;
63087;SDS011;49173;43.164;27.786;2024-03-17T12:35:10;7.20;;;5.90;;
63087;SDS011;49173;43.164;27.786;2024-03-17T12:37:45;8.15;;;6.20;;
63087;SDS011;49173;43.164;27.786;2024-03-17T12:40:19;8.35;;;6.47;;
63087;SDS011;49173;43.164;27.786;2024-03-17T12:42:49;11.15;;;8.07;;
63087;SDS011;49173;43.164;27.786;2024-03-17T12:45:20;9.13;;;5.72;;
63087;SDS011;49173;43.164;27.786;2024-03-17T12:47:47;9.05;;;5.88;;
63087;SDS011;49173;43.164;27.786;2024-03-17T12:50:14;7.70;;;6.00;;
63087;SDS011;49173;43.164;27.786;2024-03-17T12:52:50;8.60;;;6.10;;
63087;SDS011;49173;43.164;27.786;2024-03-17T12:55:23;9.18;;;6.63;;
63087;SDS011;49173;43.164;27.786;2024-03-17T12:58:11;9.35;;;6.35;;
63087;SDS011;49173;43.164;27.786;2024-03-17T13:01:02;8.73;;;6.35;;
63087;SDS011;49173;43.164;27.786;2024-03-17T13:03:35;8.65;;;6.38;;
63087;SDS011;49173;43.164;27.786;2024-03-17T13:06:02;7.82;;;5.75;;
63087;SDS011;49173;43.164;27.786;2024-03-17T13:08:32;10.30;;;5.53;;
63087;SDS011;49173;43.164;27.786;2024-03-17T13:11:01;8.00;;;6.07;;
63087;SDS011;49173;43.164;27.786;2024-03-17T13:13:35;8.63;;;6.13;;
63087;SDS011;49173;43.164;27.786;2024-03-17T13:16:01;9.18;;;6.50;;
63087;SDS011;49173;43.164;27.786;2024-03-17T13:18:30;8.55;;;6.60;;
63087;SDS011;49173;43.164;27.786;2024-03-17T13:21:11;10.10;;;6.05;;
63087;SDS011;49173;43.164;27.786;2024-03-17T13:23:37;9.00;;;6.38;;
63087;SDS011;49173;43.164;27.786;2024-03-17T13:26:08;8.95;;;6.55;;
63087;SDS011;49173;43.164;27.786;2024-03-17T13:28:38;8.60;;;6.55;;
63087;SDS011;49173;43.164;27.786;2024-03-17T13:31:09;10.35;;;7.05;;
63087;SDS011;49173;43.164;27.786;2024-03-17T13:33:41;8.15;;;6.32;;
63087;SDS011;49173;43.164;27.786;2024-03-17T13:36:10;8.97;;;6.50;;
63087;SDS011;49173;43.164;27.786;2024-03-17T13:38:36;10.13;;;6.82;;
63087;SDS011;49173;43.164;27.786;2024-03-17T13:41:05;7.68;;;6.20;;
63087;SDS011;49173;43.164;27.786;2024-03-17T13:43:32;8.93;;;6.10;;
63087;SDS011;49173;43.164;27.786;2024-03-17T13:46:01;8.50;;;6.15;;
63087;SDS011;49173;43.164;27.786;2024-03-17T13:48:29;10.85;;;7.80;;
63087;SDS011;49173;43.164;27.786;2024-03-17T13:51:06;9.75;;;6.95;;
63087;SDS011;49173;43.164;27.786;2024-03-17T13:53:36;12.65;;;7.80;;
63087;SDS011;49173;43.164;27.786;2024-03-17T13:56:03;11.52;;;7.60;;
63087;SDS011;49173;43.164;27.786;2024-03-17T13:58:32;10.25;;;7.32;;
63087;SDS011;49173;43.164;27.786;2024-03-17T14:01:02;10.18;;;7.30;;
63087;SDS011;49173;43.164;27.786;2024-03-17T14:03:37;12.27;;;8.23;;
63087;SDS011;49173;43.164;27.786;2024-03-17T14:06:08;9.95;;;7.15;;
63087;SDS011;49173;43.164;27.786;2024-03-17T14:08:38;11.50;;;7.90;;
63087;SDS011;49173;43.164;27.786;2024-03-17T14:11:07;9.43;;;6.90;;
63087;SDS011;49173;43.164;27.786;2024-03-17T14:13:36;10.02;;;7.82;;
63087;SDS011;49173;43.164;27.786;2024-03-17T14:16:05;16.30;;;8.48;;
63087;SDS011;49173;43.164;27.786;2024-03-17T14:18:32;10.90;;;8.07;;
63087;SDS011;49173;43.164;27.786;2024-03-17T14:20:58;10.43;;;7.25;;
63087;SDS011;49173;43.164;27.786;2024-03-17T14:23:31;12.00;;;7.93;;
63087;SDS011;49173;43.164;27.786;2024-03-17T14:26:00;10.18;;;7.85;;
63087;SDS011;49173;43.164;27.786;2024-03-17T14:28:26;10.35;;;7.60;;
63087;SDS011;49173;43.164;27.786;2024-03-17T14:30:55;11.82;;;8.70;;
63087;SDS011;49173;43.164;27.786;2024-03-17T14:33:22;10.85;;;8.30;;
63087;SDS011;49173;43.164;27.786;2024-03-17T14:35:59;13.77;;;7.80;;
63087;SDS011;49173;43.164;27.786;2024-03-17T14:38:29;11.45;;;7.85;;